Terminal Aerodrome Forecast
Issued by NWS

Home | Current Version | Previous Version | Text Only | Print | Product List | Glossary On
Versions: 1 2 3 4 5 6 7 8 9 10 11 12 13 14 15 16 17 18
000
FTUS41 KCLE 291201 AAA
TAFFDY
TAF AMD
KFDY 291201Z 2912/3012 06006KT 5SM BR SCT002
      TEMPO 2912/2914 2SM BR BKN002
     FM291400 07007KT 5SM BR BKN007 BKN015
     FM291500 07007KT P6SM SCT015
     FM291630 05008KT P6SM SKC
     FM292300 05003KT P6SM SCT250=

USA.gov is the U.S. government's official web portal to all federal, state and local government web resources and services.